Time;durP1;ratioP1;P1;durP2;ratioP2;P2;SDS_P1;SDS_P2;PMS_P1;PMS_P2;Temp;Humidity;BMP_temperature;BMP_pressure;BME280_temperature;BME280_humidity;BME280_pressure;Samples;Min_cycle;Max_cycle;Signal;HPM_P1;HPM_P2
2023/06/27 12:54:32;;;;;;;3.05;0.93;;;24.10;57.90;;;;;;5088773;27;20136;-65
2023/06/27 12:56:57;;;;;;;3.13;0.70;;;23.70;57.90;;;;;;5052932;28;20029;-70
2023/06/27 12:59:26;;;;;;;3.10;1.05;;;23.80;59.20;;;;;;5065898;28;20082;-68
2023/06/27 13:01:56;;;;;;;2.00;0.77;;;23.80;59.30;;;;;;5067126;28;20021;-67
2023/06/27 13:04:22;;;;;;;4.40;0.77;;;23.80;58.10;;;;;;5064725;28;20548;-69
2023/06/27 13:06:48;;;;;;;1.90;0.70;;;23.70;59.40;;;;;;5067058;28;20059;-72
2023/06/27 13:09:14;;;;;;;4.03;0.93;;;23.70;59.70;;;;;;5068097;28;20024;-72
2023/06/27 13:11:39;;;;;;;3.25;0.77;;;23.80;60.50;;;;;;5066564;28;20021;-70
2023/06/27 13:14:05;;;;;;;4.10;1.17;;;23.80;59.10;;;;;;5067172;28;20063;-71
2023/06/27 13:16:31;;;;;;;2.72;0.82;;;23.90;60.90;;;;;;5065412;28;20035;-70
2023/06/27 13:18:56;;;;;;;4.15;1.00;;;24.00;62.20;;;;;;5067926;28;20021;-72
2023/06/27 13:21:22;;;;;;;4.78;1.00;;;24.20;60.10;;;;;;5067278;28;20473;-72
2023/06/27 13:23:48;;;;;;;2.65;0.98;;;24.20;58.80;;;;;;5061575;28;20025;-66
2023/06/27 13:26:13;;;;;;;4.43;0.82;;;24.00;58.30;;;;;;5067184;28;20032;-72
2023/06/27 16:25:34;;;;;;;5.85;1.08;;;24.10;58.50;;;;;;5087725;28;20170;-67
2023/06/27 16:27:59;;;;;;;3.78;1.08;;;24.00;60.70;;;;;;5089204;28;20032;-70
2023/06/27 16:30:25;;;;;;;3.97;1.23;;;24.10;59.00;;;;;;5086602;28;20099;-69
2023/06/27 16:32:51;;;;;;;2.97;1.08;;;24.00;58.80;;;;;;5088916;28;20404;-70
2023/06/27 16:35:18;;;;;;;5.28;1.20;;;23.90;58.90;;;;;;5086903;28;20111;-70
2023/06/27 16:37:43;;;;;;;1.30;0.90;;;23.80;58.30;;;;;;5087581;28;20024;-71
2023/06/27 16:40:09;;;;;;;3.17;1.10;;;23.60;59.00;;;;;;5087764;28;20016;-71
2023/06/27 16:42:35;;;;;;;3.15;1.08;;;23.60;60.30;;;;;;5087103;28;20099;-70
2023/06/27 16:45:00;;;;;;;4.85;1.50;;;23.50;60.50;;;;;;5087592;28;20043;-71
2023/06/27 16:47:26;;;;;;;4.65;1.23;;;23.40;60.70;;;;;;5088057;28;20086;-71
2023/06/27 16:49:52;;;;;;;2.35;1.27;;;23.30;60.10;;;;;;5088135;28;20039;-69
2023/06/27 16:52:17;;;;;;;4.70;1.05;;;23.20;61.00;;;;;;5087772;28;20016;-71
2023/06/27 16:54:43;;;;;;;3.60;1.20;;;23.20;61.00;;;;;;5088023;28;20039;-71
2023/06/27 16:57:08;;;;;;;4.43;1.63;;;23.10;60.20;;;;;;5087625;28;20032;-70
2023/06/27 16:59:34;;;;;;;4.63;1.38;;;23.00;60.80;;;;;;5086956;28;20024;-71
2023/06/27 17:02:00;;;;;;;3.05;0.98;;;23.00;61.70;;;;;;5087114;28;20036;-66
2023/06/27 17:04:25;;;;;;;3.38;1.35;;;23.00;61.70;;;;;;5088114;28;20032;-71
2023/06/27 17:06:51;;;;;;;2.58;1.08;;;23.00;61.80;;;;;;5087372;28;20476;-69
2023/06/27 17:09:17;;;;;;;3.03;1.20;;;23.00;62.40;;;;;;5088182;28;20058;-69
2023/06/27 17:11:42;;;;;;;5.45;1.88;;;23.00;62.50;;;;;;5088156;28;20036;-70
2023/06/27 17:14:08;;;;;;;2.78;1.40;;;22.90;62.40;;;;;;5086174;28;20028;-71
2023/06/27 17:16:33;;;;;;;2.47;1.38;;;22.90;62.00;;;;;;5087851;28;20542;-69
2023/06/27 17:18:59;;;;;;;2.40;1.20;;;22.90;62.60;;;;;;5088035;28;20081;-69
2023/06/27 17:21:25;;;;;;;3.40;0.80;;;22.90;62.90;;;;;;5085519;28;20032;-69
2023/06/27 17:23:50;;;;;;;4.15;1.85;;;22.90;63.10;;;;;;5093859;28;20051;-71
2023/06/27 17:26:16;;;;;;;3.85;1.10;;;22.80;63.60;;;;;;5088409;28;20024;-70
2023/06/27 17:28:41;;;;;;;3.42;1.15;;;22.80;63.70;;;;;;5089545;28;20032;-70
2023/06/27 17:31:07;;;;;;;4.63;1.13;;;22.80;64.20;;;;;;5107533;28;20081;-70
2023/06/27 17:33:35;;;;;;;3.63;1.17;;;22.70;64.40;;;;;;5089331;28;20487;-70
2023/06/27 17:36:00;;;;;;;3.78;1.02;;;22.60;64.50;;;;;;5098898;28;20070;-69
2023/06/27 17:38:26;;;;;;;4.80;1.40;;;22.50;64.90;;;;;;5094750;28;20024;-70
2023/06/27 17:40:52;;;;;;;3.95;1.20;;;22.40;65.10;;;;;;5093777;28;20028;-69
2023/06/27 17:43:17;;;;;;;3.28;1.27;;;22.40;65.60;;;;;;5095289;28;20451;-68
2023/06/27 17:45:43;;;;;;;3.88;1.13;;;22.30;65.10;;;;;;5092260;28;20032;-69
2023/06/27 17:48:10;;;;;;;3.38;1.35;;;22.30;65.80;;;;;;5099316;28;20025;-70
2023/06/27 17:50:36;;;;;;;8.25;4.18;;;22.30;66.40;;;;;;5065454;28;20024;-68
2023/06/27 17:53:03;;;;;;;6.20;2.63;;;22.20;66.40;;;;;;5075735;28;20031;-67
2023/06/27 17:55:29;;;;;;;5.68;1.50;;;22.20;66.60;;;;;;5075891;28;20070;-67
2023/06/27 17:57:55;;;;;;;4.30;1.35;;;22.10;66.90;;;;;;5094516;28;20070;-67
2023/06/27 18:00:21;;;;;;;3.28;1.50;;;22.10;67.40;;;;;;5093824;28;20020;-66
2023/06/27 18:02:47;;;;;;;5.22;2.15;;;22.10;67.80;;;;;;5093926;28;20024;-66
2023/06/27 18:05:14;;;;;;;2.75;1.30;;;22.00;68.30;;;;;;5075193;28;20040;-67
2023/06/27 18:07:40;;;;;;;6.32;1.98;;;22.00;68.50;;;;;;5109348;28;20021;-67
2023/06/27 18:10:06;;;;;;;4.03;1.90;;;21.90;68.50;;;;;;5093903;28;20024;-67
2023/06/27 18:12:32;;;;;;;5.40;1.58;;;21.80;68.60;;;;;;5093879;28;20124;-67
2023/06/27 18:14:59;;;;;;;3.47;1.23;;;21.70;68.80;;;;;;5093526;28;20032;-66
2023/06/27 18:17:25;;;;;;;4.40;1.50;;;21.60;69.60;;;;;;5093905;28;20020;-67
2023/06/27 18:19:51;;;;;;;6.53;1.52;;;21.60;70.00;;;;;;5075509;28;20032;-67
2023/06/27 18:22:17;;;;;;;3.75;1.30;;;21.50;69.90;;;;;;5092726;28;20036;-67
2023/06/27 18:24:43;;;;;;;2.97;1.33;;;21.40;69.90;;;;;;5092853;28;20040;-67
2023/06/27 18:27:09;;;;;;;5.72;1.45;;;21.30;70.20;;;;;;5074915;28;20024;-66
2023/06/27 18:29:35;;;;;;;7.18;1.80;;;21.20;70.50;;;;;;5073955;28;20032;-66
2023/06/27 18:32:00;;;;;;;5.38;1.40;;;21.20;70.80;;;;;;5075123;28;20069;-69
2023/06/27 18:34:26;;;;;;;4.00;1.65;;;21.30;71.00;;;;;;5093799;28;20029;-67
2023/06/27 18:36:52;;;;;;;3.42;1.10;;;21.30;70.60;;;;;;5092768;28;20496;-68
2023/06/27 18:39:17;;;;;;;2.95;1.10;;;21.20;70.80;;;;;;5075550;28;20388;-69
2023/06/27 18:41:43;;;;;;;2.33;1.27;;;21.20;70.30;;;;;;5093349;28;20085;-70
2023/06/27 18:44:09;;;;;;;3.97;1.40;;;21.10;70.50;;;;;;5092902;28;20380;-72
2023/06/27 18:46:35;;;;;;;4.50;1.63;;;21.10;71.00;;;;;;5092197;28;20024;-69
2023/06/27 18:49:01;;;;;;;2.13;1.23;;;21.10;71.40;;;;;;5092527;28;20380;-71
2023/06/27 18:51:26;;;;;;;3.47;1.23;;;21.10;71.60;;;;;;5093142;28;20492;-71
2023/06/27 18:53:52;;;;;;;4.38;1.10;;;21.00;72.00;;;;;;5093353;28;20511;-72
2023/06/27 18:56:18;;;;;;;2.63;1.15;;;20.90;72.10;;;;;;5092285;28;20024;-69
2023/06/27 18:58:44;;;;;;;5.40;1.20;;;20.80;72.50;;;;;;5075356;28;20074;-72
2023/06/27 19:01:10;;;;;;;3.55;1.42;;;20.70;73.10;;;;;;5074665;28;20052;-71
2023/06/27 19:03:37;;;;;;;2.40;1.30;;;20.70;73.80;;;;;;5092476;28;20032;-71
2023/06/27 19:06:04;;;;;;;3.50;1.40;;;20.60;74.30;;;;;;5093020;28;20411;-71
2023/06/27 19:08:29;;;;;;;3.65;1.35;;;20.60;74.10;;;;;;5075010;28;20024;-70
2023/06/27 19:10:55;;;;;;;4.07;1.33;;;20.50;74.60;;;;;;5074125;28;20114;-69
2023/06/27 19:13:20;;;;;;;3.35;1.50;;;20.50;75.20;;;;;;5092647;28;20032;-69
2023/06/27 19:15:46;;;;;;;2.30;1.35;;;20.50;75.60;;;;;;5108067;28;20058;-69
2023/06/27 19:18:12;;;;;;;3.22;1.30;;;20.40;75.30;;;;;;5093983;28;20076;-70
2023/06/27 19:20:37;;;;;;;4.47;1.17;;;20.30;75.40;;;;;;5092381;28;20020;-69
2023/06/27 19:23:04;;;;;;;4.68;1.30;;;20.30;75.60;;;;;;5092691;28;20085;-68
